»·PEaware :: N365EA KSAN-KSBA

N365EA :: KSAN-KSBA

FLIGHT INFORMATION

Flight Status: Arrived
Operator: Privately registered:
United States
More flights under this callsign
Pilot: Anonymous 24416 (24416)
Aircraft: CESSNA 550 CITATION 2/S2/BRAVO
(C550)
More flights by this aircraft type
Origin: KSAN San Diego Intl-Lindbergh
United States
Destination: KSBA Santa Barbara Mun
United States
More flights between these airports :: More routes between these airports
Route: +
File this flight plan on PilotEdge
Remarks:
Altitude:
(Current/Filed)
0ft
Speed:
(Current/Filed)
0kts
Departed: 05-Jan-20 05:55 PM
Arrived: 05-Jan-20 06:54 PM
Distance/Time
Traveled:
167nm/0:59
Distance/Time
To Go:
Arrived

Flight Plot

Page will automatically refresh every two minutes.

Flight plan parsing failed; only flown route is shown


Map Options




Map Legend


Flown Route
Filed Route
Departure Airport
Arrival Airport
Navaid (VOR, NDB)
Fix

Horizontal Profiles

Position Reports

Time Latitude Longitude Heading Altitude Ground
Speed
05-Jan-20 17:40 32.732420 -117.176641 194 23ft 0kts
05-Jan-20 17:41 32.732420 -117.176641 194 23ft 0kts
05-Jan-20 17:42 32.732420 -117.176641 194 23ft 0kts
05-Jan-20 17:43 32.732420 -117.176641 194 23ft 0kts
05-Jan-20 17:44 32.732420 -117.176641 194 23ft 0kts
05-Jan-20 17:45 32.732420 -117.176641 194 23ft 0kts
05-Jan-20 17:46 32.732420 -117.176641 193 23ft 0kts
05-Jan-20 17:47 32.732420 -117.176641 193 23ft 0kts
05-Jan-20 17:48 32.732282 -117.176671 185 22ft 6kts
05-Jan-20 17:49 32.730977 -117.175559 133 22ft 0kts
05-Jan-20 17:50 32.730977 -117.175559 133 22ft 0kts
05-Jan-20 17:52 32.730977 -117.175559 133 22ft 0kts
05-Jan-20 17:53 32.730977 -117.175559 133 22ft 0kts
05-Jan-20 17:54 32.730202 -117.175857 284 21ft 0kts
05-Jan-20 17:55 32.736709 -117.200943 292 591ft 130kts
05-Jan-20 17:56 32.759290 -117.239775 302 1840ft 139kts
05-Jan-20 17:57 32.779645 -117.279857 302 2844ft 147kts
05-Jan-20 17:58 32.806437 -117.316133 347 3849ft 155kts
05-Jan-20 17:59 32.851274 -117.321889 352 4488ft 181kts
05-Jan-20 18:00 32.903414 -117.328215 352 4486ft 191kts
05-Jan-20 18:01 32.954675 -117.334249 352 4948ft 171kts
05-Jan-20 18:02 32.999513 -117.341748 337 5739ft 169kts
05-Jan-20 18:03 33.041888 -117.372389 321 6473ft 191kts
05-Jan-20 18:04 33.085204 -117.411450 321 6488ft 191kts
05-Jan-20 18:05 33.113794 -117.458747 303 6971ft 157kts
05-Jan-20 18:06 33.137151 -117.498340 304 7957ft 149kts
05-Jan-20 18:07 33.164351 -117.543952 305 8981ft 190kts
05-Jan-20 18:08 33.197347 -117.599265 305 9986ft 216kts
05-Jan-20 18:09 33.233160 -117.659371 305 10987ft 226kts
05-Jan-20 18:10 33.270699 -117.722492 305 11895ft 252kts
05-Jan-20 18:11 33.322064 -117.785585 317 12500ft 266kts
05-Jan-20 18:11 33.370060 -117.836181 317 12506ft 280kts
05-Jan-20 18:13 33.439127 -117.908711 317 12501ft 285kts
05-Jan-20 18:13 33.488721 -117.960877 317 12500ft 286kts
05-Jan-20 18:14 33.548485 -118.023842 317 12500ft 286kts
05-Jan-20 18:15 33.608293 -118.086971 317 12498ft 286kts
05-Jan-20 18:16 33.668122 -118.150233 317 12500ft 286kts
05-Jan-20 18:17 33.728039 -118.213716 317 12501ft 286kts
05-Jan-20 18:18 33.787692 -118.277054 317 12505ft 286kts
05-Jan-20 18:19 33.847258 -118.340414 317 12510ft 286kts
05-Jan-20 18:20 33.906860 -118.403950 317 12511ft 286kts
05-Jan-20 18:21 33.949008 -118.483185 293 12508ft 286kts
05-Jan-20 18:22 33.978031 -118.572661 292 12504ft 286kts
05-Jan-20 18:23 34.006230 -118.661295 292 12508ft 286kts
05-Jan-20 18:24 34.036556 -118.749680 310 12502ft 286kts
05-Jan-20 18:25 34.106868 -118.789023 339 12022ft 271kts
05-Jan-20 18:26 34.177313 -118.815285 340 11234ft 262kts
05-Jan-20 18:27 34.246819 -118.840843 340 10442ft 260kts
05-Jan-20 18:28 34.315824 -118.866238 340 9651ft 260kts
05-Jan-20 18:29 34.362100 -118.923660 288 8855ft 256kts
05-Jan-20 18:30 34.377503 -119.001016 284 8507ft 211kts
05-Jan-20 18:31 34.389780 -119.070467 284 8512ft 235kts
05-Jan-20 18:32 34.403700 -119.150673 284 8508ft 243kts
05-Jan-20 18:33 34.416894 -119.227117 284 8508ft 224kts
05-Jan-20 18:34 34.429598 -119.300682 284 8509ft 224kts
05-Jan-20 18:35 34.442389 -119.375188 285 8508ft 226kts
05-Jan-20 18:36 34.455179 -119.450005 285 8507ft 219kts
05-Jan-20 18:37 34.465800 -119.512742 287 8520ft 164kts
05-Jan-20 18:38 34.474942 -119.565972 286 8509ft 164kts
05-Jan-20 18:39 34.483615 -119.617368 287 8506ft 148kts
05-Jan-20 18:40 34.491931 -119.666273 286 8513ft 156kts
05-Jan-20 18:41 34.455777 -119.677382 118 7977ft 213kts
05-Jan-20 18:42 34.431163 -119.619681 113 7275ft 190kts
05-Jan-20 18:43 34.407207 -119.561614 112 6547ft 192kts
05-Jan-20 18:44 34.369727 -119.539234 235 5966ft 182kts
05-Jan-20 18:45 34.382346 -119.590559 305 5302ft 150kts
05-Jan-20 18:46 34.401696 -119.628294 298 4350ft 117kts
05-Jan-20 18:47 34.413017 -119.665895 288 3778ft 127kts
05-Jan-20 18:48 34.421053 -119.705512 284 3107ft 109kts
05-Jan-20 18:49 34.427036 -119.741320 283 2039ft 111kts
05-Jan-20 18:50 34.429158 -119.777441 268 1142ft 110kts
05-Jan-20 18:51 34.428426 -119.813827 269 454ft 104kts
05-Jan-20 18:52 34.427668 -119.846600 269 15ft 61kts
05-Jan-20 18:53 34.426773 -119.851788 163 15ft 1kts
05-Jan-20 18:54 34.426676 -119.851738 152 15ft 0kts
05-Jan-20 18:55 34.426676 -119.851738 152 15ft 0kts
05-Jan-20 18:56 34.426473 -119.849542 88 15ft 12kts
05-Jan-20 18:57 34.426553 -119.845953 87 15ft 8kts
05-Jan-20 18:58 34.426603 -119.843294 87 15ft 7kts
05-Jan-20 18:59 34.426657 -119.840135 88 15ft 8kts
05-Jan-20 19:00 34.426403 -119.838272 163 12ft 4kts
05-Jan-20 19:01 34.424232 -119.837598 165 13ft 9kts
05-Jan-20 19:02 34.422587 -119.836806 152 13ft 5kts
05-Jan-20 19:03 34.422498 -119.836272 45 12ft 0kts
05-Jan-20 19:04 34.422498 -119.836271 45 12ft 0kts
05-Jan-20 19:05 34.422498 -119.836271 45 12ft 0kts
05-Jan-20 19:06 34.422498 -119.836271 45 12ft 0kts
05-Jan-20 19:07 34.422498 -119.836271 45 12ft 0kts
05-Jan-20 19:08 34.422498 -119.836271 45 12ft 0kts

Navigation Log

Ident Type
Flight plan parsing failed, navigation log unavailable